»·PEaware :: N520ER KMHV-KVNY

N520ER :: KMHV-KVNY

FLIGHT INFORMATION

Flight Status: Arrived
Operator: Privately registered:
United States
More flights under this callsign
Pilot: Zach A. (13925)
Aircraft: CESSNA 172 SKYHAWK
(C172)
More flights by this aircraft type
Origin: KMHV Mojave
United States
Destination: KVNY Van Nuys
United States
More flights between these airports :: More routes between these airports
Route: HURIM
File this flight plan on PilotEdge
Remarks:
Altitude:
(Current/Filed)
8,500ft
Speed:
(Current/Filed)
110kts
Departed: 14-Apr-19 03:05 PM
Arrived: 14-Apr-19 03:51 PM
Distance/Time
Traveled:
54nm/0:46
Distance/Time
To Go:
Arrived

Flight Plot

Page will automatically refresh every two minutes.

Flight plan parsing failed; only flown route is shown


Map Options




Map Legend


Flown Route
Filed Route
Departure Airport
Arrival Airport
Navaid (VOR, NDB)
Fix

Horizontal Profiles

Position Reports

Time Latitude Longitude Heading Altitude Ground
Speed
14-Apr-19 14:38 35.056591 -118.150071 358 2794ft 0kts
14-Apr-19 14:39 35.056591 -118.150071 358 2794ft 0kts
14-Apr-19 14:40 35.056591 -118.150071 358 2794ft 0kts
14-Apr-19 14:41 35.056591 -118.150071 358 2794ft 0kts
14-Apr-19 14:42 35.056591 -118.150072 359 2794ft 0kts
14-Apr-19 14:43 35.056591 -118.150072 359 2794ft 0kts
14-Apr-19 14:44 35.056591 -118.150071 358 2794ft 0kts
14-Apr-19 14:45 35.056591 -118.150072 359 2794ft 0kts
14-Apr-19 14:46 35.056591 -118.150071 358 2794ft 0kts
14-Apr-19 14:47 35.056591 -118.150071 358 2794ft 0kts
14-Apr-19 14:48 35.056591 -118.150072 359 2794ft 0kts
14-Apr-19 14:49 35.056591 -118.150071 359 2794ft 0kts
14-Apr-19 14:50 35.056591 -118.150071 359 2794ft 0kts
14-Apr-19 14:52 35.056591 -118.150072 359 2794ft 0kts
14-Apr-19 14:52 35.056591 -118.150071 359 2794ft 0kts
14-Apr-19 14:53 35.056591 -118.150071 358 2794ft 0kts
14-Apr-19 14:54 35.056591 -118.150071 359 2794ft 0kts
14-Apr-19 14:55 35.056591 -118.150071 359 2794ft 0kts
14-Apr-19 14:56 35.056591 -118.150071 359 2794ft 0kts
14-Apr-19 14:57 35.057500 -118.149603 44 2794ft 8kts
14-Apr-19 14:58 35.055476 -118.146259 135 2794ft 14kts
14-Apr-19 14:59 35.051914 -118.141938 136 2794ft 22kts
14-Apr-19 15:00 35.047509 -118.136619 134 2794ft 24kts
14-Apr-19 15:01 35.044200 -118.131993 61 2794ft 13kts
14-Apr-19 15:02 35.044293 -118.131833 43 2794ft 0kts
14-Apr-19 15:03 35.045565 -118.131902 315 2794ft 4kts
14-Apr-19 15:04 35.053909 -118.139807 323 3105ft 64kts
14-Apr-19 15:05 35.068311 -118.148780 316 3825ft 53kts
14-Apr-19 15:06 35.083500 -118.155470 23 4376ft 92kts
14-Apr-19 15:07 35.095923 -118.129018 118 4976ft 106kts
14-Apr-19 15:08 35.075686 -118.105758 162 5570ft 95kts
14-Apr-19 15:09 35.059604 -118.117730 238 6147ft 69kts
14-Apr-19 15:10 35.048009 -118.135528 239 6732ft 63kts
14-Apr-19 15:11 35.037676 -118.151316 238 7235ft 60kts
14-Apr-19 15:12 35.024413 -118.165617 221 7647ft 68kts
14-Apr-19 15:13 35.006699 -118.177063 213 8052ft 75kts
14-Apr-19 15:14 34.987143 -118.187797 212 8452ft 78kts
14-Apr-19 15:15 34.965427 -118.199397 210 8519ft 101kts
14-Apr-19 15:16 34.941120 -118.212201 210 8483ft 94kts
14-Apr-19 15:17 34.917267 -118.224748 210 8481ft 93kts
14-Apr-19 15:18 34.893546 -118.237222 210 8482ft 92kts
14-Apr-19 15:19 34.869948 -118.249607 210 8480ft 92kts
14-Apr-19 15:20 34.846629 -118.261844 210 8482ft 90kts
14-Apr-19 15:21 34.823499 -118.273999 209 8484ft 90kts
14-Apr-19 15:22 34.800432 -118.286086 209 8487ft 90kts
14-Apr-19 15:23 34.777353 -118.298170 210 8490ft 90kts
14-Apr-19 15:24 34.754412 -118.310197 209 8489ft 89kts
14-Apr-19 15:25 34.731597 -118.322152 209 8492ft 90kts
14-Apr-19 15:26 34.708335 -118.333650 202 8490ft 91kts
14-Apr-19 15:27 34.683840 -118.341599 201 8489ft 91kts
14-Apr-19 15:28 34.659203 -118.349363 201 8491ft 91kts
14-Apr-19 15:29 34.634687 -118.357031 201 8494ft 90kts
14-Apr-19 15:30 34.610298 -118.364682 200 8498ft 90kts
14-Apr-19 15:31 34.586056 -118.372249 200 8510ft 90kts
14-Apr-19 15:32 34.570196 -118.393645 234 8515ft 87kts
14-Apr-19 15:33 34.555813 -118.417837 229 8278ft 86kts
14-Apr-19 15:34 34.538526 -118.433985 211 7651ft 75kts
14-Apr-19 15:35 34.520334 -118.445836 207 7047ft 74kts
14-Apr-19 15:36 34.501656 -118.457114 204 6412ft 79kts
14-Apr-19 15:37 34.480612 -118.469608 202 5634ft 88kts
14-Apr-19 15:38 34.458366 -118.482781 201 4955ft 87kts
14-Apr-19 15:39 34.437615 -118.494791 198 4950ft 79kts
14-Apr-19 15:40 34.416258 -118.505103 187 4955ft 87kts
14-Apr-19 15:41 34.391876 -118.506538 178 4512ft 86kts
14-Apr-19 15:42 34.368051 -118.504951 171 4124ft 88kts
14-Apr-19 15:43 34.342954 -118.502822 172 3731ft 87kts
14-Apr-19 15:44 34.318984 -118.500402 172 3465ft 94kts
14-Apr-19 15:45 34.295912 -118.498305 170 2876ft 70kts
14-Apr-19 15:46 34.275671 -118.496526 172 2407ft 77kts
14-Apr-19 15:47 34.253964 -118.494419 172 1848ft 80kts
14-Apr-19 15:48 34.231673 -118.492375 174 1284ft 71kts
14-Apr-19 15:49 34.214716 -118.490847 172 822ft 57kts
14-Apr-19 15:50 34.208198 -118.491017 205 805ft 9kts
14-Apr-19 15:51 34.206489 -118.492012 251 805ft 0kts
14-Apr-19 15:52 34.206490 -118.492011 251 805ft 0kts

Navigation Log

Ident Type
Flight plan parsing failed, navigation log unavailable